createdAt,value
2024-02-19T00:01:40.434Z,80.5
2024-02-19T00:09:56.178Z,80.5
2024-02-19T00:18:12.115Z,79.5
2024-02-19T00:26:27.750Z,79.5
2024-02-19T00:34:43.622Z,79.5
2024-02-19T00:42:59.353Z,79.5
2024-02-19T00:51:15.093Z,81
2024-02-19T00:59:30.907Z,81
2024-02-19T01:07:46.689Z,80
2024-02-19T01:16:02.518Z,79.5
2024-02-19T01:24:18.248Z,80
2024-02-19T01:32:34.157Z,81.5
2024-02-19T01:40:49.887Z,82
2024-02-19T01:49:05.725Z,82
2024-02-19T01:57:21.403Z,82
2024-02-19T02:05:37.370Z,82
2024-02-19T02:13:53.041Z,83
2024-02-19T02:22:08.837Z,84
2024-02-19T02:30:24.657Z,82.5
2024-02-19T02:38:40.373Z,83.5
2024-02-19T02:46:56.122Z,83
2024-02-19T02:55:12.000Z,82
2024-02-19T03:03:27.741Z,83
2024-02-19T03:11:43.525Z,83.5
2024-02-19T03:19:59.361Z,83.5
2024-02-19T03:28:15.211Z,84
2024-02-19T03:36:30.921Z,83
2024-02-19T03:53:02.480Z,82.5
2024-02-19T04:01:18.393Z,83.5
2024-02-19T04:09:34.098Z,83.5
2024-02-19T04:17:50.007Z,83
2024-02-19T04:26:05.603Z,84.5
2024-02-19T04:34:21.508Z,84
2024-02-19T04:42:37.283Z,84.5
2024-02-19T04:50:52.981Z,84
2024-02-19T04:59:08.746Z,84.5
2024-02-19T05:15:40.365Z,84.5
2024-02-19T05:23:56.106Z,85
2024-02-19T05:32:11.966Z,85
2024-02-19T05:40:27.744Z,85.5
2024-02-19T05:48:43.484Z,86
2024-02-19T05:56:59.226Z,85.5
2024-02-19T06:05:15.018Z,85.5
2024-02-19T06:13:30.777Z,85.5
2024-02-19T06:21:46.538Z,86.5
2024-02-19T06:30:02.438Z,86.5
2024-02-19T06:38:18.250Z,86.5
2024-02-19T06:46:33.865Z,86.5
2024-02-19T06:54:49.745Z,87
2024-02-19T07:03:05.446Z,87.5
2024-02-19T07:11:21.256Z,87.5
2024-02-19T07:19:37.087Z,88
2024-02-19T07:27:52.850Z,88
2024-02-19T07:36:08.499Z,88
2024-02-19T07:44:24.352Z,87.5
2024-02-19T07:52:40.093Z,87
2024-02-19T08:00:55.919Z,86
2024-02-19T08:09:11.676Z,85.5
2024-02-19T08:42:15.054Z,83.5
2024-02-19T08:58:46.705Z,82
2024-02-19T09:07:02.601Z,80.5
2024-02-19T09:15:18.420Z,80
2024-02-19T09:23:34.261Z,79.5
2024-02-19T09:31:50.160Z,80
2024-02-19T09:40:06.062Z,80
2024-02-19T09:48:21.965Z,79.5
2024-02-19T09:56:37.731Z,79.5
2024-02-19T10:04:53.658Z,79
2024-02-19T10:21:25.282Z,76
2024-02-19T10:29:41.205Z,73.5
2024-02-19T10:37:57.094Z,73.5
2024-02-19T10:46:13.087Z,73
2024-02-19T10:54:28.914Z,72.5
2024-02-19T11:02:44.841Z,72.5
2024-02-19T11:11:00.804Z,72.5
2024-02-19T11:19:16.740Z,71.5
2024-02-19T11:27:32.553Z,71.5
2024-02-19T11:35:48.625Z,70
2024-02-19T11:44:04.430Z,70.5
2024-02-19T11:52:20.457Z,70.5
2024-02-19T12:00:36.288Z,70
2024-02-19T12:08:52.203Z,69.5
2024-02-19T12:17:08.163Z,69.5
2024-02-19T12:25:24.154Z,68.5
2024-02-19T12:33:40.127Z,68.5
2024-02-19T12:41:56.009Z,68.5
2024-02-19T12:50:12.015Z,70
2024-02-19T12:58:27.972Z,69
2024-02-19T13:06:43.952Z,67.5
2024-02-19T13:14:59.789Z,65
2024-02-19T13:23:15.775Z,63
2024-02-19T13:31:31.834Z,63
2024-02-19T13:39:47.772Z,62.5
2024-02-19T13:48:03.850Z,61.5
2024-02-19T13:56:19.756Z,61.5
2024-02-19T14:21:07.770Z,63
2024-02-19T14:29:23.733Z,59
2024-02-19T14:37:39.864Z,56
2024-02-19T14:45:56.004Z,56
2024-02-19T14:54:12.053Z,56.5
2024-02-19T15:02:28.378Z,56
2024-02-19T15:10:44.359Z,55
2024-02-19T15:19:00.548Z,53.5
2024-02-19T15:27:16.454Z,55
2024-02-19T15:35:32.633Z,58.5
2024-02-19T15:52:04.580Z,59.5
2024-02-19T16:00:20.540Z,61
2024-02-19T16:08:36.522Z,62.5
2024-02-19T16:16:52.453Z,64
2024-02-19T16:33:24.313Z,64
2024-02-19T16:41:40.194Z,65.5
2024-02-19T16:49:56.171Z,68
2024-02-19T16:58:12.089Z,67.5
2024-02-19T17:06:27.981Z,68
2024-02-19T17:14:45.057Z,68.5
2024-02-19T17:22:59.724Z,69.5
2024-02-19T17:31:15.719Z,70.5
2024-02-19T17:39:31.416Z,70
2024-02-19T17:47:47.327Z,70.5
2024-02-19T17:56:03.173Z,72.5
2024-02-19T18:04:19.082Z,73.5
2024-02-19T18:12:34.861Z,74
2024-02-19T18:20:50.687Z,74
2024-02-19T18:45:38.232Z,77
2024-02-19T18:53:54.051Z,77.5
2024-02-19T19:02:09.897Z,78
2024-02-19T19:10:25.768Z,79
2024-02-19T19:18:41.597Z,78.5
2024-02-19T19:35:13.240Z,78
2024-02-19T19:43:29.014Z,77.5
2024-02-19T19:51:44.753Z,77
2024-02-19T20:00:00.819Z,77
2024-02-19T20:08:16.391Z,76.5
2024-02-19T20:16:32.282Z,76
2024-02-19T20:24:48.126Z,76
2024-02-19T20:33:04.088Z,74
2024-02-19T20:41:19.688Z,74.5
2024-02-19T20:49:35.666Z,75
2024-02-19T20:57:51.392Z,75
2024-02-19T21:06:07.210Z,78
2024-02-19T21:14:22.941Z,80
2024-02-19T21:22:38.855Z,80.5
2024-02-19T21:30:54.533Z,81
2024-02-19T21:39:10.365Z,81
2024-02-19T21:47:26.078Z,82.5
2024-02-19T21:55:41.832Z,83.5
2024-02-19T22:03:57.562Z,84
2024-02-19T22:12:13.318Z,84.5
2024-02-19T22:20:29.087Z,85
2024-02-19T22:28:44.821Z,85
2024-02-19T22:37:00.569Z,83
2024-02-19T22:45:16.330Z,83
2024-02-19T22:53:32.209Z,82.5
2024-02-19T23:01:47.926Z,83
2024-02-19T23:10:03.718Z,83.5
2024-02-19T23:18:19.566Z,83
2024-02-19T23:26:35.225Z,83
2024-02-19T23:34:51.011Z,83
2024-02-19T23:43:06.865Z,84
2024-02-19T23:51:22.570Z,83
2024-02-19T23:59:38.319Z,83
